Time,TemperatureF,DewpointF,PressureIn,WindDirection,WindDirectionDegrees,WindSpeedMPH,WindSpeedGustMPH,Humidity,HourlyPrecipIn,Conditions,Clouds,dailyrainin,SoftwareType,DateUTC
2013-06-07 00:05:00,67.2,64.0,31.40,South,179,5.0,-999.0,90,-99.99,,,0.00,weatherlink.com 1.10,2013-06-07 04:05:00,
2013-06-07 00:20:00,66.3,62.0,31.40,WSW,237,2.0,-999.0,87,-99.99,,,0.00,weatherlink.com 1.10,2013-06-07 04:20:00,
2013-06-07 00:35:00,65.9,63.0,31.40,SSW,194,7.0,-999.0,89,-99.99,,,0.00,weatherlink.com 1.10,2013-06-07 04:35:00,
2013-06-07 00:50:00,66.0,62.0,31.40,SSW,208,5.0,-999.0,88,-99.99,,,0.00,weatherlink.com 1.10,2013-06-07 04:50:00,
2013-06-07 01:05:00,66.2,63.0,31.40,SW,224,3.0,-999.0,88,-99.99,,,0.00,weatherlink.com 1.10,2013-06-07 05:05:00,
2013-06-07 01:20:00,66.4,63.0,31.40,SE,139,3.0,-999.0,89,-99.99,,,0.00,weatherlink.com 1.10,2013-06-07 05:20:00,
2013-06-07 01:35:00,66.4,62.0,31.40,SSW,198,3.0,-999.0,86,-99.99,,,0.00,weatherlink.com 1.10,2013-06-07 05:35:00,
2013-06-07 01:50:00,66.1,63.0,31.40,South,179,7.0,-999.0,88,-99.99,,,0.00,weatherlink.com 1.10,2013-06-07 05:50:00,
2013-06-07 02:05:00,65.5,62.0,31.40,SSW,210,1.0,-999.0,87,-99.99,,,0.00,weatherlink.com 1.10,2013-06-07 06:05:00,
2013-06-07 02:21:00,65.4,61.0,31.40,West,260,3.0,-999.0,86,-99.99,,,0.00,weatherlink.com 1.10,2013-06-07 06:21:00,
2013-06-07 02:36:00,65.5,62.0,31.40,South,183,5.0,-999.0,87,-99.99,,,0.00,weatherlink.com 1.10,2013-06-07 06:36:00,
2013-06-07 02:51:00,64.9,61.0,31.40,WSW,251,2.0,-999.0,88,-99.99,,,0.00,weatherlink.com 1.10,2013-06-07 06:51:00,
2013-06-07 03:06:00,65.8,62.0,31.40,South,181,8.0,-999.0,88,-99.99,,,0.00,weatherlink.com 1.10,2013-06-07 07:06:00,
2013-06-07 03:21:00,65.2,61.0,31.40,South,174,2.0,-999.0,87,-99.99,,,0.00,weatherlink.com 1.10,2013-06-07 07:21:00,
2013-06-07 03:36:00,65.2,61.0,31.40,SE,143,3.0,-999.0,87,-99.99,,,0.00,weatherlink.com 1.10,2013-06-07 07:36:00,
2013-06-07 03:51:00,64.9,62.0,31.40,SSW,192,6.0,-999.0,89,-99.99,,,0.00,weatherlink.com 1.10,2013-06-07 07:51:00,
2013-06-07 04:06:00,65.4,62.0,31.40,SW,232,3.0,-999.0,89,-99.99,,,0.00,weatherlink.com 1.10,2013-06-07 08:06:00,
2013-06-07 04:21:00,64.5,61.0,31.40,SW,224,4.0,-999.0,87,-99.99,,,0.00,weatherlink.com 1.10,2013-06-07 08:21:00,
2013-06-07 04:36:00,64.7,62.0,31.40,SSE,161,5.0,-999.0,89,-99.99,,,0.00,weatherlink.com 1.10,2013-06-07 08:36:00,
2013-06-07 04:51:00,64.9,61.0,31.40,SSW,194,9.0,-999.0,88,-99.99,,,0.00,weatherlink.com 1.10,2013-06-07 08:51:00,
2013-06-07 05:06:00,64.0,61.0,31.40,SSE,166,5.0,-999.0,91,-99.99,,,0.00,weatherlink.com 1.10,2013-06-07 09:06:00,
2013-06-07 05:21:00,63.2,61.0,31.40,SW,214,4.0,-999.0,91,-99.99,,,0.00,weatherlink.com 1.10,2013-06-07 09:21:00,
2013-06-07 05:36:00,63.5,61.0,31.40,SW,217,3.0,-999.0,92,-99.99,,,0.00,weatherlink.com 1.10,2013-06-07 09:36:00,
2013-06-07 05:51:00,62.2,60.0,31.40,SSW,198,5.0,-999.0,92,-99.99,,,0.00,weatherlink.com 1.10,2013-06-07 09:51:00,
2013-06-07 06:06:00,61.0,59.0,31.40,SSE,166,4.0,-999.0,93,-99.99,,,0.00,weatherlink.com 1.10,2013-06-07 10:06:00,
2013-06-07 06:21:00,61.0,59.0,31.40,SSW,206,9.0,-999.0,92,-99.99,,,0.00,weatherlink.com 1.10,2013-06-07 10:21:00,
2013-06-07 06:36:00,61.3,60.0,31.40,SE,132,4.0,-999.0,94,-99.99,,,0.00,weatherlink.com 1.10,2013-06-07 10:36:00,
2013-06-07 07:06:00,62.0,60.0,31.40,SSW,196,6.0,-999.0,93,-99.99,,,0.00,weatherlink.com 1.10,2013-06-07 11:06:00,
2013-06-07 07:21:00,60.6,58.0,31.40,South,182,6.0,-999.0,92,-99.99,,,0.00,weatherlink.com 1.10,2013-06-07 11:21:00,
2013-06-07 07:36:00,60.3,58.0,31.40,SSW,205,6.0,-999.0,91,-99.99,,,0.00,weatherlink.com 1.10,2013-06-07 11:36:00,
2013-06-07 07:51:00,61.2,59.0,31.40,South,185,4.0,-999.0,91,-99.99,,,0.00,weatherlink.com 1.10,2013-06-07 11:51:00,
2013-06-07 08:06:00,61.5,59.0,31.40,SSE,162,1.0,-999.0,91,-99.99,,,0.00,weatherlink.com 1.10,2013-06-07 12:06:00,
2013-06-07 08:21:00,62.3,60.0,31.40,South,179,6.0,-999.0,92,-99.99,,,0.00,weatherlink.com 1.10,2013-06-07 12:21:00,
2013-06-07 08:36:00,63.1,61.0,31.40,South,187,4.0,-999.0,91,-99.99,,,0.00,weatherlink.com 1.10,2013-06-07 12:36:00,
2013-06-07 08:51:00,62.2,59.0,31.40,NNW,344,1.0,-999.0,88,-99.99,,,0.00,weatherlink.com 1.10,2013-06-07 12:51:00,
2013-06-07 09:06:00,63.0,60.0,31.40,SSW,196,4.0,-999.0,89,-99.99,,,0.00,weatherlink.com 1.10,2013-06-07 13:06:00,
2013-06-07 09:21:00,64.6,61.0,31.40,SE,128,3.0,-999.0,89,-99.99,,,0.00,weatherlink.com 1.10,2013-06-07 13:21:00,
2013-06-07 09:36:00,64.2,60.0,31.40,South,169,3.0,-999.0,86,-99.99,,,0.00,weatherlink.com 1.10,2013-06-07 13:36:00,
2013-06-07 09:51:00,64.2,60.0,31.40,NNE,31,1.0,-999.0,86,-99.99,,,0.00,weatherlink.com 1.10,2013-06-07 13:51:00,
2013-06-07 10:06:00,65.7,61.0,31.40,SSE,156,2.0,-999.0,85,-99.99,,,0.00,weatherlink.com 1.10,2013-06-07 14:06:00,
2013-06-07 10:21:00,64.7,58.0,31.40,SW,221,2.0,-999.0,79,-99.99,,,0.00,weatherlink.com 1.10,2013-06-07 14:21:00,
2013-06-07 10:36:00,64.9,58.0,31.40,South,186,3.0,-999.0,78,-99.99,,,0.00,weatherlink.com 1.10,2013-06-07 14:36:00,
2013-06-07 10:51:00,66.9,61.0,31.28,ESE,108,0.0,-999.0,80,-99.99,,,0.00,weatherlink.com 1.10,2013-06-07 14:51:00,
2013-06-07 11:06:00,68.0,61.0,26.05,SW,225,2.0,-999.0,79,-99.99,,,0.00,weatherlink.com 1.10,2013-06-07 15:06:00,
2013-06-07 11:36:00,68.5,61.0,26.05,ESE,102,3.0,-999.0,77,-99.99,,,0.00,weatherlink.com 1.10,2013-06-07 15:36:00,
2013-06-07 12:06:00,68.9,61.0,26.05,SSE,162,2.0,-999.0,76,-99.99,,,0.00,weatherlink.com 1.10,2013-06-07 16:06:00,
2013-06-07 12:21:00,68.1,59.0,26.05,South,179,12.0,-999.0,72,-99.99,,,0.00,weatherlink.com 1.10,2013-06-07 16:21:00,
2013-06-07 12:36:00,69.3,59.0,29.97,NE,51,2.0,-999.0,69,-99.99,,,0.00,weatherlink.com 1.10,2013-06-07 16:36:00,
2013-06-07 12:51:00,71.2,62.0,29.97,WSW,250,3.0,-999.0,72,-99.99,,,0.00,weatherlink.com 1.10,2013-06-07 16:51:00,
2013-06-07 13:06:00,70.2,60.0,29.97,SW,236,8.0,-999.0,70,-99.99,,,0.00,weatherlink.com 1.10,2013-06-07 17:06:00,
2013-06-07 13:21:00,71.0,59.0,29.97,SSW,210,6.0,-999.0,66,-99.99,,,0.00,weatherlink.com 1.10,2013-06-07 17:21:00,
2013-06-07 13:36:00,72.2,60.0,29.97,South,175,8.0,-999.0,66,-99.99,,,0.00,weatherlink.com 1.10,2013-06-07 17:36:00,
2013-06-07 13:51:00,71.8,62.0,29.97,South,183,10.0,-999.0,70,-99.99,,,0.00,weatherlink.com 1.10,2013-06-07 17:51:00,
2013-06-07 14:06:00,71.1,58.0,29.97,North,9,3.0,-999.0,64,-99.99,,,0.00,weatherlink.com 1.10,2013-06-07 18:06:00,
2013-06-07 14:21:00,71.7,57.0,29.97,South,186,11.0,-999.0,60,-99.99,,,0.00,weatherlink.com 1.10,2013-06-07 18:21:00,
2013-06-07 14:51:00,73.3,58.0,29.97,SSW,193,9.0,-999.0,60,-99.99,,,0.00,weatherlink.com 1.10,2013-06-07 18:51:00,
2013-06-07 15:06:00,73.3,59.0,29.97,SSE,156,4.0,-999.0,62,-99.99,,,0.00,weatherlink.com 1.10,2013-06-07 19:06:00,
2013-06-07 15:22:00,73.1,61.0,29.97,South,171,5.0,-999.0,66,-99.99,,,0.00,weatherlink.com 1.10,2013-06-07 19:22:00,
2013-06-07 15:37:00,74.4,58.0,29.97,East,79,3.0,-999.0,57,-99.99,,,0.00,weatherlink.com 1.10,2013-06-07 19:37:00,
2013-06-07 15:52:00,74.8,58.0,29.97,East,92,3.0,-999.0,56,-99.99,,,0.00,weatherlink.com 1.10,2013-06-07 19:52:00,
2013-06-07 16:07:00,75.7,59.0,29.97,WSW,250,3.0,-999.0,56,-99.99,,,0.00,weatherlink.com 1.10,2013-06-07 20:07:00,
2013-06-07 16:22:00,75.6,60.0,29.97,WNW,283,5.0,-999.0,58,-99.99,,,0.00,weatherlink.com 1.10,2013-06-07 20:22:00,
2013-06-07 16:38:00,75.5,59.0,29.97,SSW,197,4.0,-999.0,56,-99.99,,,0.00,weatherlink.com 1.10,2013-06-07 20:38:00,
2013-06-07 17:52:00,74.5,59.0,29.97,West,274,2.0,-999.0,58,-99.99,,,0.00,weatherlink.com 1.10,2013-06-07 21:52:00,
2013-06-07 18:37:00,74.7,58.0,29.97,NNE,29,2.0,-999.0,56,-99.99,,,0.00,weatherlink.com 1.10,2013-06-07 22:37:00,
2013-06-07 18:52:00,74.5,59.0,29.97,SSW,204,10.0,-999.0,58,-99.99,,,0.00,weatherlink.com 1.10,2013-06-07 22:52:00,
2013-06-07 19:37:00,74.3,58.0,29.97,East,97,4.0,-999.0,57,-99.99,,,0.00,weatherlink.com 1.10,2013-06-07 23:37:00,
2013-06-07 19:52:00,74.2,57.0,29.97,WSW,239,3.0,-999.0,56,-99.99,,,0.00,weatherlink.com 1.10,2013-06-07 23:52:00,
2013-06-07 20:07:00,74.0,58.0,29.97,SSE,167,4.0,-999.0,57,-99.99,,,0.00,weatherlink.com 1.10,2013-06-08 00:07:00,
2013-06-07 21:07:00,72.6,57.0,29.97,SSE,165,3.0,-999.0,59,-99.99,,,0.00,weatherlink.com 1.10,2013-06-08 01:07:00,
2013-06-07 21:22:00,72.4,61.0,29.97,SSE,155,2.0,-999.0,67,-99.99,,,0.00,weatherlink.com 1.10,2013-06-08 01:22:00,
2013-06-07 21:37:00,72.0,60.0,29.97,SSE,167,3.0,-999.0,67,-99.99,,,0.00,weatherlink.com 1.10,2013-06-08 01:37:00,
2013-06-07 21:52:00,71.9,61.0,29.97,South,179,4.0,-999.0,68,-99.99,,,0.00,weatherlink.com 1.10,2013-06-08 01:52:00,
2013-06-07 22:07:00,71.3,61.0,29.97,SE,129,0.0,-999.0,70,-99.99,,,0.00,weatherlink.com 1.10,2013-06-08 02:07:00,
2013-06-07 22:22:00,71.4,61.0,29.97,South,183,1.0,-999.0,70,-99.99,,,0.00,weatherlink.com 1.10,2013-06-08 02:22:00,
2013-06-07 22:37:00,70.9,61.0,29.97,SW,227,4.0,-999.0,72,-99.99,,,0.00,weatherlink.com 1.10,2013-06-08 02:37:00,
2013-06-07 22:52:00,69.9,61.0,29.97,SSE,155,3.0,-999.0,74,-99.99,,,0.00,weatherlink.com 1.10,2013-06-08 02:52:00,
2013-06-07 23:07:00,68.8,61.0,29.97,NNE,18,2.0,-999.0,76,-99.99,,,0.00,weatherlink.com 1.10,2013-06-08 03:07:00,
2013-06-07 23:37:00,68.1,62.0,29.97,SSE,157,3.0,-999.0,81,-99.99,,,0.00,weatherlink.com 1.10,2013-06-08 03:37:00,
2013-06-07 23:52:00,67.5,60.0,29.97,SSE,167,2.0,-999.0,77,-99.99,,,0.00,weatherlink.com 1.10,2013-06-08 03:52:00,